sensor_id;sensor_type;location;lat;lon;timestamp;P1;durP1;ratioP1;P2;durP2;ratioP2
71108;SDS011;59614;51.012;-1.648;2023-05-10T00:01:51;34.00;;;12.80;;
71108;SDS011;59614;51.012;-1.648;2023-05-10T00:04:17;45.50;;;13.20;;
71108;SDS011;59614;51.012;-1.648;2023-05-10T00:06:42;33.33;;;13.10;;
71108;SDS011;59614;51.012;-1.648;2023-05-10T00:09:07;35.53;;;12.85;;
71108;SDS011;59614;51.012;-1.648;2023-05-10T00:11:33;39.22;;;14.90;;
71108;SDS011;59614;51.012;-1.648;2023-05-10T00:13:58;36.95;;;13.10;;
71108;SDS011;59614;51.012;-1.648;2023-05-10T00:16:24;57.55;;;15.13;;
71108;SDS011;59614;51.012;-1.648;2023-05-10T00:18:49;43.13;;;14.02;;
71108;SDS011;59614;51.012;-1.648;2023-05-10T00:21:15;39.22;;;13.82;;
71108;SDS011;59614;51.012;-1.648;2023-05-10T00:23:40;50.80;;;14.98;;
71108;SDS011;59614;51.012;-1.648;2023-05-10T00:26:05;51.10;;;14.50;;
71108;SDS011;59614;51.012;-1.648;2023-05-10T00:28:31;32.58;;;13.50;;
71108;SDS011;59614;51.012;-1.648;2023-05-10T00:30:56;35.25;;;13.57;;
71108;SDS011;59614;51.012;-1.648;2023-05-10T00:33:22;39.08;;;14.02;;
71108;SDS011;59614;51.012;-1.648;2023-05-10T00:35:47;36.47;;;12.93;;
71108;SDS011;59614;51.012;-1.648;2023-05-10T00:38:13;33.47;;;13.57;;
71108;SDS011;59614;51.012;-1.648;2023-05-10T00:40:39;31.88;;;12.20;;
71108;SDS011;59614;51.012;-1.648;2023-05-10T00:43:04;34.45;;;12.75;;
71108;SDS011;59614;51.012;-1.648;2023-05-10T00:45:31;37.85;;;12.50;;
71108;SDS011;59614;51.012;-1.648;2023-05-10T00:47:58;31.17;;;12.52;;
71108;SDS011;59614;51.012;-1.648;2023-05-10T00:52:51;38.53;;;12.93;;
71108;SDS011;59614;51.012;-1.648;2023-05-10T00:55:17;31.40;;;13.70;;
71108;SDS011;59614;51.012;-1.648;2023-05-10T00:57:43;37.33;;;13.82;;
71108;SDS011;59614;51.012;-1.648;2023-05-10T01:00:09;37.58;;;13.95;;
71108;SDS011;59614;51.012;-1.648;2023-05-10T01:02:36;41.33;;;13.73;;
71108;SDS011;59614;51.012;-1.648;2023-05-10T01:05:02;38.28;;;14.02;;
71108;SDS011;59614;51.012;-1.648;2023-05-10T01:07:30;33.88;;;13.38;;
71108;SDS011;59614;51.012;-1.648;2023-05-10T01:09:56;39.35;;;13.95;;
71108;SDS011;59614;51.012;-1.648;2023-05-10T01:12:22;31.92;;;12.90;;
71108;SDS011;59614;51.012;-1.648;2023-05-10T01:14:48;28.27;;;11.73;;
71108;SDS011;59614;51.012;-1.648;2023-05-10T01:17:13;33.85;;;12.13;;
71108;SDS011;59614;51.012;-1.648;2023-05-10T01:19:40;39.20;;;11.35;;
71108;SDS011;59614;51.012;-1.648;2023-05-10T01:22:26;34.53;;;10.93;;
71108;SDS011;59614;51.012;-1.648;2023-05-10T01:37:09;27.42;;;8.57;;
71108;SDS011;59614;51.012;-1.648;2023-05-10T01:42:14;25.05;;;8.55;;
71108;SDS011;59614;51.012;-1.648;2023-05-10T01:45:02;33.17;;;9.38;;
71108;SDS011;59614;51.012;-1.648;2023-05-10T01:47:40;28.75;;;8.02;;
71108;SDS011;59614;51.012;-1.648;2023-05-10T01:50:15;22.20;;;7.93;;
71108;SDS011;59614;51.012;-1.648;2023-05-10T01:52:50;24.60;;;7.47;;
71108;SDS011;59614;51.012;-1.648;2023-05-10T01:55:20;28.00;;;7.85;;
71108;SDS011;59614;51.012;-1.648;2023-05-10T01:57:48;28.10;;;8.05;;
71108;SDS011;59614;51.012;-1.648;2023-05-10T02:00:17;29.48;;;7.70;;
71108;SDS011;59614;51.012;-1.648;2023-05-10T02:02:45;33.67;;;7.40;;
71108;SDS011;59614;51.012;-1.648;2023-05-10T02:05:12;40.92;;;8.48;;
71108;SDS011;59614;51.012;-1.648;2023-05-10T02:07:39;24.52;;;7.57;;
71108;SDS011;59614;51.012;-1.648;2023-05-10T02:10:06;29.85;;;7.15;;
71108;SDS011;59614;51.012;-1.648;2023-05-10T02:12:35;27.10;;;7.05;;
71108;SDS011;59614;51.012;-1.648;2023-05-10T02:15:04;30.52;;;6.95;;
71108;SDS011;59614;51.012;-1.648;2023-05-10T02:17:37;24.90;;;6.38;;
71108;SDS011;59614;51.012;-1.648;2023-05-10T02:20:04;36.53;;;7.50;;
71108;SDS011;59614;51.012;-1.648;2023-05-10T02:22:32;28.23;;;6.60;;
71108;SDS011;59614;51.012;-1.648;2023-05-10T02:25:01;25.85;;;7.43;;
71108;SDS011;59614;51.012;-1.648;2023-05-10T02:27:27;31.42;;;6.68;;
71108;SDS011;59614;51.012;-1.648;2023-05-10T02:29:54;20.98;;;6.65;;
71108;SDS011;59614;51.012;-1.648;2023-05-10T02:32:21;24.08;;;7.22;;
71108;SDS011;59614;51.012;-1.648;2023-05-10T02:34:47;29.43;;;6.63;;
71108;SDS011;59614;51.012;-1.648;2023-05-10T02:37:17;34.40;;;6.30;;
71108;SDS011;59614;51.012;-1.648;2023-05-10T02:42:12;29.90;;;6.03;;
71108;SDS011;59614;51.012;-1.648;2023-05-10T02:44:41;25.60;;;5.43;;
71108;SDS011;59614;51.012;-1.648;2023-05-10T02:47:09;32.30;;;5.97;;
71108;SDS011;59614;51.012;-1.648;2023-05-10T02:49:35;29.23;;;5.80;;
71108;SDS011;59614;51.012;-1.648;2023-05-10T02:52:01;31.83;;;6.18;;
71108;SDS011;59614;51.012;-1.648;2023-05-10T02:54:31;24.85;;;5.57;;
71108;SDS011;59614;51.012;-1.648;2023-05-10T02:57:00;33.58;;;6.00;;
71108;SDS011;59614;51.012;-1.648;2023-05-10T02:59:29;35.33;;;6.72;;
71108;SDS011;59614;51.012;-1.648;2023-05-10T03:01:56;41.55;;;6.28;;
71108;SDS011;59614;51.012;-1.648;2023-05-10T03:04:21;38.05;;;6.82;;
71108;SDS011;59614;51.012;-1.648;2023-05-10T03:06:46;24.60;;;5.68;;
71108;SDS011;59614;51.012;-1.648;2023-05-10T03:09:12;37.55;;;6.10;;
71108;SDS011;59614;51.012;-1.648;2023-05-10T03:14:24;37.78;;;5.65;;
71108;SDS011;59614;51.012;-1.648;2023-05-10T03:19:48;31.35;;;6.15;;
71108;SDS011;59614;51.012;-1.648;2023-05-10T03:22:43;23.08;;;5.32;;
71108;SDS011;59614;51.012;-1.648;2023-05-10T03:25:10;34.60;;;6.32;;
71108;SDS011;59614;51.012;-1.648;2023-05-10T03:27:39;29.00;;;5.28;;
71108;SDS011;59614;51.012;-1.648;2023-05-10T03:30:08;21.80;;;5.10;;
71108;SDS011;59614;51.012;-1.648;2023-05-10T03:32:36;24.10;;;5.18;;
71108;SDS011;59614;51.012;-1.648;2023-05-10T03:35:12;34.35;;;5.60;;
71108;SDS011;59614;51.012;-1.648;2023-05-10T03:37:40;33.53;;;6.05;;
71108;SDS011;59614;51.012;-1.648;2023-05-10T03:40:06;30.30;;;5.80;;
71108;SDS011;59614;51.012;-1.648;2023-05-10T03:42:32;37.40;;;5.90;;
71108;SDS011;59614;51.012;-1.648;2023-05-10T03:44:57;30.42;;;5.53;;
71108;SDS011;59614;51.012;-1.648;2023-05-10T03:47:22;34.55;;;6.25;;
71108;SDS011;59614;51.012;-1.648;2023-05-10T03:49:48;28.75;;;5.13;;
71108;SDS011;59614;51.012;-1.648;2023-05-10T03:52:13;24.48;;;5.43;;
71108;SDS011;59614;51.012;-1.648;2023-05-10T03:54:39;31.80;;;6.30;;
71108;SDS011;59614;51.012;-1.648;2023-05-10T03:57:04;25.65;;;5.43;;
71108;SDS011;59614;51.012;-1.648;2023-05-10T03:59:30;27.63;;;5.28;;
71108;SDS011;59614;51.012;-1.648;2023-05-10T04:01:55;30.90;;;5.45;;
71108;SDS011;59614;51.012;-1.648;2023-05-10T04:04:21;28.02;;;5.60;;
71108;SDS011;59614;51.012;-1.648;2023-05-10T04:06:47;19.00;;;4.88;;
71108;SDS011;59614;51.012;-1.648;2023-05-10T04:09:12;29.45;;;5.38;;
71108;SDS011;59614;51.012;-1.648;2023-05-10T04:11:37;22.65;;;5.20;;
71108;SDS011;59614;51.012;-1.648;2023-05-10T04:14:03;19.88;;;4.93;;
71108;SDS011;59614;51.012;-1.648;2023-05-10T04:16:28;31.30;;;5.00;;
71108;SDS011;59614;51.012;-1.648;2023-05-10T04:18:54;19.00;;;5.18;;
71108;SDS011;59614;51.012;-1.648;2023-05-10T04:21:19;19.90;;;4.85;;
71108;SDS011;59614;51.012;-1.648;2023-05-10T04:23:45;24.60;;;5.07;;
71108;SDS011;59614;51.012;-1.648;2023-05-10T04:26:10;26.85;;;4.80;;
71108;SDS011;59614;51.012;-1.648;2023-05-10T04:28:35;19.70;;;4.72;;
71108;SDS011;59614;51.012;-1.648;2023-05-10T04:31:08;24.77;;;4.65;;
71108;SDS011;59614;51.012;-1.648;2023-05-10T04:33:34;25.17;;;5.43;;
71108;SDS011;59614;51.012;-1.648;2023-05-10T04:36:01;42.33;;;6.43;;
71108;SDS011;59614;51.012;-1.648;2023-05-10T04:38:28;34.90;;;6.05;;
71108;SDS011;59614;51.012;-1.648;2023-05-10T04:40:54;24.93;;;5.60;;
71108;SDS011;59614;51.012;-1.648;2023-05-10T04:43:28;41.85;;;6.18;;
71108;SDS011;59614;51.012;-1.648;2023-05-10T04:45:55;29.67;;;6.45;;
71108;SDS011;59614;51.012;-1.648;2023-05-10T04:48:21;27.65;;;6.43;;
71108;SDS011;59614;51.012;-1.648;2023-05-10T04:50:47;24.10;;;6.38;;
71108;SDS011;59614;51.012;-1.648;2023-05-10T04:53:12;29.48;;;7.05;;
71108;SDS011;59614;51.012;-1.648;2023-05-10T04:55:38;35.67;;;6.28;;
71108;SDS011;59614;51.012;-1.648;2023-05-10T04:58:03;25.30;;;5.82;;
71108;SDS011;59614;51.012;-1.648;2023-05-10T05:00:28;33.53;;;5.93;;
71108;SDS011;59614;51.012;-1.648;2023-05-10T05:02:54;44.72;;;6.47;;
71108;SDS011;59614;51.012;-1.648;2023-05-10T05:05:19;43.05;;;6.55;;
71108;SDS011;59614;51.012;-1.648;2023-05-10T05:07:45;40.72;;;6.05;;
71108;SDS011;59614;51.012;-1.648;2023-05-10T05:10:10;22.85;;;5.28;;
71108;SDS011;59614;51.012;-1.648;2023-05-10T05:12:36;26.60;;;5.95;;
71108;SDS011;59614;51.012;-1.648;2023-05-10T05:15:01;30.45;;;5.88;;
71108;SDS011;59614;51.012;-1.648;2023-05-10T05:17:29;31.80;;;5.47;;
71108;SDS011;59614;51.012;-1.648;2023-05-10T05:19:55;19.00;;;5.80;;
71108;SDS011;59614;51.012;-1.648;2023-05-10T05:22:21;32.25;;;6.80;;
71108;SDS011;59614;51.012;-1.648;2023-05-10T05:24:52;30.92;;;5.88;;
71108;SDS011;59614;51.012;-1.648;2023-05-10T05:27:18;29.10;;;6.72;;
71108;SDS011;59614;51.012;-1.648;2023-05-10T05:29:45;27.92;;;6.43;;
71108;SDS011;59614;51.012;-1.648;2023-05-10T05:32:11;37.50;;;6.85;;
71108;SDS011;59614;51.012;-1.648;2023-05-10T05:34:36;28.50;;;6.18;;
71108;SDS011;59614;51.012;-1.648;2023-05-10T05:37:02;36.42;;;6.70;;
71108;SDS011;59614;51.012;-1.648;2023-05-10T05:39:27;32.60;;;6.80;;
71108;SDS011;59614;51.012;-1.648;2023-05-10T05:41:53;29.98;;;7.13;;
71108;SDS011;59614;51.012;-1.648;2023-05-10T05:44:18;38.13;;;7.03;;
71108;SDS011;59614;51.012;-1.648;2023-05-10T05:46:43;46.42;;;7.53;;
71108;SDS011;59614;51.012;-1.648;2023-05-10T05:49:09;46.13;;;7.75;;
71108;SDS011;59614;51.012;-1.648;2023-05-10T05:51:34;50.17;;;7.07;;
71108;SDS011;59614;51.012;-1.648;2023-05-10T05:54:00;40.47;;;7.65;;
71108;SDS011;59614;51.012;-1.648;2023-05-10T05:56:26;41.00;;;7.97;;
71108;SDS011;59614;51.012;-1.648;2023-05-10T05:58:52;47.65;;;8.82;;
71108;SDS011;59614;51.012;-1.648;2023-05-10T06:01:17;43.05;;;8.00;;
71108;SDS011;59614;51.012;-1.648;2023-05-10T06:03:43;37.65;;;7.18;;
71108;SDS011;59614;51.012;-1.648;2023-05-10T06:06:08;38.15;;;8.07;;
71108;SDS011;59614;51.012;-1.648;2023-05-10T06:08:34;41.03;;;8.52;;
71108;SDS011;59614;51.012;-1.648;2023-05-10T06:11:00;33.60;;;7.65;;
71108;SDS011;59614;51.012;-1.648;2023-05-10T06:13:25;40.70;;;7.72;;
71108;SDS011;59614;51.012;-1.648;2023-05-10T06:15:57;35.92;;;7.07;;
71108;SDS011;59614;51.012;-1.648;2023-05-10T06:18:22;36.17;;;7.43;;
71108;SDS011;59614;51.012;-1.648;2023-05-10T06:20:49;44.00;;;8.85;;
71108;SDS011;59614;51.012;-1.648;2023-05-10T06:23:14;29.70;;;6.80;;
71108;SDS011;59614;51.012;-1.648;2023-05-10T06:25:40;32.70;;;7.18;;
71108;SDS011;59614;51.012;-1.648;2023-05-10T06:28:05;38.85;;;6.45;;
71108;SDS011;59614;51.012;-1.648;2023-05-10T06:30:31;29.27;;;6.45;;
71108;SDS011;59614;51.012;-1.648;2023-05-10T06:32:56;29.13;;;5.53;;
71108;SDS011;59614;51.012;-1.648;2023-05-10T06:35:22;40.15;;;7.18;;
71108;SDS011;59614;51.012;-1.648;2023-05-10T06:37:48;37.63;;;5.60;;
71108;SDS011;59614;51.012;-1.648;2023-05-10T06:40:13;26.60;;;5.78;;
71108;SDS011;59614;51.012;-1.648;2023-05-10T06:42:39;32.85;;;5.55;;
71108;SDS011;59614;51.012;-1.648;2023-05-10T06:45:04;29.15;;;5.20;;
71108;SDS011;59614;51.012;-1.648;2023-05-10T06:47:30;32.40;;;6.05;;
71108;SDS011;59614;51.012;-1.648;2023-05-10T06:49:56;29.92;;;5.85;;
71108;SDS011;59614;51.012;-1.648;2023-05-10T06:52:22;27.73;;;5.70;;
71108;SDS011;59614;51.012;-1.648;2023-05-10T06:54:48;24.45;;;4.65;;
71108;SDS011;59614;51.012;-1.648;2023-05-10T06:57:13;21.65;;;4.65;;
71108;SDS011;59614;51.012;-1.648;2023-05-10T06:59:39;30.08;;;5.60;;
71108;SDS011;59614;51.012;-1.648;2023-05-10T07:02:04;29.40;;;4.72;;
71108;SDS011;59614;51.012;-1.648;2023-05-10T07:04:30;26.17;;;4.47;;
71108;SDS011;59614;51.012;-1.648;2023-05-10T07:06:56;24.00;;;4.78;;
71108;SDS011;59614;51.012;-1.648;2023-05-10T07:09:22;19.00;;;3.95;;
71108;SDS011;59614;51.012;-1.648;2023-05-10T07:11:48;19.27;;;4.60;;
71108;SDS011;59614;51.012;-1.648;2023-05-10T07:14:14;24.75;;;4.07;;
71108;SDS011;59614;51.012;-1.648;2023-05-10T07:16:39;20.65;;;4.50;;
71108;SDS011;59614;51.012;-1.648;2023-05-10T07:19:04;19.60;;;3.90;;
71108;SDS011;59614;51.012;-1.648;2023-05-10T07:21:30;26.00;;;4.68;;
71108;SDS011;59614;51.012;-1.648;2023-05-10T07:23:56;23.92;;;3.97;;
71108;SDS011;59614;51.012;-1.648;2023-05-10T07:26:21;20.73;;;4.30;;
71108;SDS011;59614;51.012;-1.648;2023-05-10T07:28:47;18.83;;;4.03;;
71108;SDS011;59614;51.012;-1.648;2023-05-10T07:31:12;18.73;;;4.15;;
71108;SDS011;59614;51.012;-1.648;2023-05-10T07:33:37;24.23;;;4.00;;
71108;SDS011;59614;51.012;-1.648;2023-05-10T07:36:03;22.30;;;4.72;;
71108;SDS011;59614;51.012;-1.648;2023-05-10T07:38:28;26.75;;;4.32;;
71108;SDS011;59614;51.012;-1.648;2023-05-10T07:40:54;21.83;;;3.95;;
71108;SDS011;59614;51.012;-1.648;2023-05-10T07:43:19;17.73;;;4.03;;
71108;SDS011;59614;51.012;-1.648;2023-05-10T07:45:45;21.40;;;4.05;;
71108;SDS011;59614;51.012;-1.648;2023-05-10T07:48:10;22.20;;;4.55;;
71108;SDS011;59614;51.012;-1.648;2023-05-10T07:50:36;22.35;;;4.10;;
71108;SDS011;59614;51.012;-1.648;2023-05-10T07:53:01;22.60;;;4.35;;
71108;SDS011;59614;51.012;-1.648;2023-05-10T07:55:27;21.73;;;3.80;;
71108;SDS011;59614;51.012;-1.648;2023-05-10T07:57:52;15.13;;;3.72;;
71108;SDS011;59614;51.012;-1.648;2023-05-10T08:00:18;28.10;;;4.28;;
71108;SDS011;59614;51.012;-1.648;2023-05-10T08:02:44;19.17;;;3.70;;
71108;SDS011;59614;51.012;-1.648;2023-05-10T08:05:10;14.30;;;4.05;;
71108;SDS011;59614;51.012;-1.648;2023-05-10T08:07:35;17.55;;;3.17;;
71108;SDS011;59614;51.012;-1.648;2023-05-10T08:10:01;15.20;;;3.72;;
71108;SDS011;59614;51.012;-1.648;2023-05-10T08:12:27;21.20;;;4.13;;
71108;SDS011;59614;51.012;-1.648;2023-05-10T08:14:53;17.52;;;3.60;;
71108;SDS011;59614;51.012;-1.648;2023-05-10T08:17:18;21.23;;;4.55;;
71108;SDS011;59614;51.012;-1.648;2023-05-10T08:19:44;12.43;;;3.17;;
71108;SDS011;59614;51.012;-1.648;2023-05-10T08:22:09;13.38;;;3.30;;
71108;SDS011;59614;51.012;-1.648;2023-05-10T08:24:35;17.52;;;3.53;;
71108;SDS011;59614;51.012;-1.648;2023-05-10T08:27:03;13.85;;;3.10;;
71108;SDS011;59614;51.012;-1.648;2023-05-10T08:29:30;12.93;;;3.85;;
71108;SDS011;59614;51.012;-1.648;2023-05-10T08:31:55;14.50;;;3.00;;
71108;SDS011;59614;51.012;-1.648;2023-05-10T08:34:20;16.70;;;3.55;;
71108;SDS011;59614;51.012;-1.648;2023-05-10T08:36:46;12.90;;;3.30;;
71108;SDS011;59614;51.012;-1.648;2023-05-10T08:39:11;15.32;;;3.10;;
71108;SDS011;59614;51.012;-1.648;2023-05-10T08:41:37;17.95;;;3.95;;
71108;SDS011;59614;51.012;-1.648;2023-05-10T08:44:04;11.50;;;2.55;;
71108;SDS011;59614;51.012;-1.648;2023-05-10T08:46:33;12.07;;;3.10;;
71108;SDS011;59614;51.012;-1.648;2023-05-10T08:49:04;15.05;;;3.45;;
71108;SDS011;59614;51.012;-1.648;2023-05-10T08:51:34;15.63;;;3.58;;
71108;SDS011;59614;51.012;-1.648;2023-05-10T08:54:02;13.23;;;2.88;;
71108;SDS011;59614;51.012;-1.648;2023-05-10T08:56:29;17.20;;;3.13;;
71108;SDS011;59614;51.012;-1.648;2023-05-10T08:58:54;17.20;;;3.10;;
71108;SDS011;59614;51.012;-1.648;2023-05-10T09:01:21;14.50;;;3.47;;
71108;SDS011;59614;51.012;-1.648;2023-05-10T09:03:47;13.35;;;3.17;;
71108;SDS011;59614;51.012;-1.648;2023-05-10T09:06:13;15.80;;;3.45;;
71108;SDS011;59614;51.012;-1.648;2023-05-10T09:08:39;22.35;;;4.10;;
71108;SDS011;59614;51.012;-1.648;2023-05-10T09:11:06;15.18;;;4.70;;
71108;SDS011;59614;51.012;-1.648;2023-05-10T09:13:33;25.25;;;8.75;;
71108;SDS011;59614;51.012;-1.648;2023-05-10T09:16:01;44.38;;;21.40;;
71108;SDS011;59614;51.012;-1.648;2023-05-10T09:18:27;30.50;;;14.52;;
71108;SDS011;59614;51.012;-1.648;2023-05-10T09:20:53;56.65;;;25.17;;
71108;SDS011;59614;51.012;-1.648;2023-05-10T09:23:19;23.02;;;10.02;;
71108;SDS011;59614;51.012;-1.648;2023-05-10T09:25:44;24.23;;;9.38;;
71108;SDS011;59614;51.012;-1.648;2023-05-10T09:28:10;24.52;;;9.40;;
71108;SDS011;59614;51.012;-1.648;2023-05-10T09:30:36;30.45;;;14.15;;
71108;SDS011;59614;51.012;-1.648;2023-05-10T09:33:02;15.00;;;5.35;;
71108;SDS011;59614;51.012;-1.648;2023-05-10T09:35:29;14.93;;;4.60;;
71108;SDS011;59614;51.012;-1.648;2023-05-10T09:37:59;11.85;;;3.30;;
71108;SDS011;59614;51.012;-1.648;2023-05-10T09:40:28;10.68;;;2.90;;
71108;SDS011;59614;51.012;-1.648;2023-05-10T09:45:22;11.57;;;3.20;;
71108;SDS011;59614;51.012;-1.648;2023-05-10T09:47:48;12.73;;;3.45;;
71108;SDS011;59614;51.012;-1.648;2023-05-10T09:50:14;11.05;;;3.53;;
71108;SDS011;59614;51.012;-1.648;2023-05-10T09:55:22;9.77;;;2.67;;
71108;SDS011;59614;51.012;-1.648;2023-05-10T09:57:48;7.68;;;2.80;;
71108;SDS011;59614;51.012;-1.648;2023-05-10T10:00:23;12.80;;;2.90;;
71108;SDS011;59614;51.012;-1.648;2023-05-10T10:02:54;8.07;;;2.63;;
71108;SDS011;59614;51.012;-1.648;2023-05-10T10:05:27;12.10;;;3.35;;
71108;SDS011;59614;51.012;-1.648;2023-05-10T10:07:57;12.48;;;3.30;;
71108;SDS011;59614;51.012;-1.648;2023-05-10T10:10:26;8.93;;;2.92;;
71108;SDS011;59614;51.012;-1.648;2023-05-10T10:12:53;14.07;;;3.03;;
71108;SDS011;59614;51.012;-1.648;2023-05-10T10:15:20;16.10;;;5.07;;
71108;SDS011;59614;51.012;-1.648;2023-05-10T10:17:46;11.02;;;4.40;;
71108;SDS011;59614;51.012;-1.648;2023-05-10T10:20:14;10.93;;;3.90;;
71108;SDS011;59614;51.012;-1.648;2023-05-10T10:22:40;9.00;;;3.10;;
71108;SDS011;59614;51.012;-1.648;2023-05-10T10:25:05;10.65;;;2.78;;
71108;SDS011;59614;51.012;-1.648;2023-05-10T10:27:47;7.72;;;2.30;;
71108;SDS011;59614;51.012;-1.648;2023-05-10T10:30:33;9.88;;;2.70;;
71108;SDS011;59614;51.012;-1.648;2023-05-10T10:36:10;9.93;;;2.97;;
71108;SDS011;59614;51.012;-1.648;2023-05-10T10:38:54;6.90;;;2.42;;
71108;SDS011;59614;51.012;-1.648;2023-05-10T10:41:37;9.82;;;3.45;;
71108;SDS011;59614;51.012;-1.648;2023-05-10T10:55:06;11.45;;;3.00;;
71108;SDS011;59614;51.012;-1.648;2023-05-10T11:03:10;14.20;;;4.00;;
71108;SDS011;59614;51.012;-1.648;2023-05-10T11:05:49;12.00;;;3.22;;
71108;SDS011;59614;51.012;-1.648;2023-05-10T11:08:30;10.57;;;2.78;;
71108;SDS011;59614;51.012;-1.648;2023-05-10T11:13:29;10.60;;;2.95;;
71108;SDS011;59614;51.012;-1.648;2023-05-10T11:16:11;10.23;;;2.85;;
71108;SDS011;59614;51.012;-1.648;2023-05-10T11:18:45;9.93;;;3.08;;
71108;SDS011;59614;51.012;-1.648;2023-05-10T11:21:24;9.90;;;2.70;;
71108;SDS011;59614;51.012;-1.648;2023-05-10T11:23:57;11.07;;;2.55;;
71108;SDS011;59614;51.012;-1.648;2023-05-10T11:26:24;10.40;;;2.60;;
71108;SDS011;59614;51.012;-1.648;2023-05-10T11:28:52;8.77;;;2.63;;
71108;SDS011;59614;51.012;-1.648;2023-05-10T11:31:23;14.68;;;3.10;;
71108;SDS011;59614;51.012;-1.648;2023-05-10T11:33:52;13.23;;;3.20;;
71108;SDS011;59614;51.012;-1.648;2023-05-10T11:36:26;9.63;;;3.00;;
71108;SDS011;59614;51.012;-1.648;2023-05-10T11:38:58;10.23;;;2.72;;
71108;SDS011;59614;51.012;-1.648;2023-05-10T11:41:24;9.73;;;3.08;;
71108;SDS011;59614;51.012;-1.648;2023-05-10T11:43:52;9.95;;;3.40;;
71108;SDS011;59614;51.012;-1.648;2023-05-10T11:46:19;10.10;;;3.10;;
71108;SDS011;59614;51.012;-1.648;2023-05-10T11:48:46;5.82;;;2.05;;
71108;SDS011;59614;51.012;-1.648;2023-05-10T11:51:14;8.02;;;2.40;;
71108;SDS011;59614;51.012;-1.648;2023-05-10T11:53:39;7.97;;;2.28;;
71108;SDS011;59614;51.012;-1.648;2023-05-10T11:56:05;8.10;;;2.30;;
71108;SDS011;59614;51.012;-1.648;2023-05-10T11:58:32;5.90;;;2.17;;
71108;SDS011;59614;51.012;-1.648;2023-05-10T12:00:59;9.32;;;2.67;;
71108;SDS011;59614;51.012;-1.648;2023-05-10T12:03:25;10.52;;;2.70;;
71108;SDS011;59614;51.012;-1.648;2023-05-10T12:05:51;7.85;;;2.75;;
71108;SDS011;59614;51.012;-1.648;2023-05-10T12:08:20;8.15;;;2.30;;
71108;SDS011;59614;51.012;-1.648;2023-05-10T12:10:50;11.65;;;3.00;;
71108;SDS011;59614;51.012;-1.648;2023-05-10T12:13:16;8.25;;;2.58;;
71108;SDS011;59614;51.012;-1.648;2023-05-10T12:15:42;12.75;;;3.17;;
71108;SDS011;59614;51.012;-1.648;2023-05-10T12:18:14;15.52;;;3.80;;
71108;SDS011;59614;51.012;-1.648;2023-05-10T12:20:40;12.43;;;3.25;;
71108;SDS011;59614;51.012;-1.648;2023-05-10T12:23:08;9.30;;;2.83;;
71108;SDS011;59614;51.012;-1.648;2023-05-10T12:25:35;11.07;;;2.78;;
71108;SDS011;59614;51.012;-1.648;2023-05-10T12:30:29;11.57;;;2.92;;
71108;SDS011;59614;51.012;-1.648;2023-05-10T12:33:02;8.77;;;2.80;;
71108;SDS011;59614;51.012;-1.648;2023-05-10T12:40:55;8.60;;;2.33;;
71108;SDS011;59614;51.012;-1.648;2023-05-10T12:43:21;7.23;;;2.53;;
71108;SDS011;59614;51.012;-1.648;2023-05-10T12:45:46;15.60;;;3.17;;
71108;SDS011;59614;51.012;-1.648;2023-05-10T12:48:14;11.52;;;2.83;;
71108;SDS011;59614;51.012;-1.648;2023-05-10T12:50:40;12.93;;;3.17;;
71108;SDS011;59614;51.012;-1.648;2023-05-10T12:53:05;11.05;;;3.03;;
71108;SDS011;59614;51.012;-1.648;2023-05-10T12:55:31;15.63;;;3.40;;
71108;SDS011;59614;51.012;-1.648;2023-05-10T12:57:56;11.30;;;2.97;;
71108;SDS011;59614;51.012;-1.648;2023-05-10T13:00:22;9.27;;;2.85;;
71108;SDS011;59614;51.012;-1.648;2023-05-10T13:02:47;12.20;;;3.00;;
71108;SDS011;59614;51.012;-1.648;2023-05-10T13:05:12;11.23;;;3.03;;
71108;SDS011;59614;51.012;-1.648;2023-05-10T13:07:38;17.33;;;3.38;;
71108;SDS011;59614;51.012;-1.648;2023-05-10T13:10:04;8.80;;;2.80;;
71108;SDS011;59614;51.012;-1.648;2023-05-10T13:12:31;11.88;;;3.42;;
71108;SDS011;59614;51.012;-1.648;2023-05-10T13:14:57;13.57;;;3.42;;
71108;SDS011;59614;51.012;-1.648;2023-05-10T13:17:22;15.18;;;3.42;;
71108;SDS011;59614;51.012;-1.648;2023-05-10T13:19:48;12.90;;;3.00;;
71108;SDS011;59614;51.012;-1.648;2023-05-10T13:22:13;10.95;;;2.95;;
71108;SDS011;59614;51.012;-1.648;2023-05-10T13:24:39;8.95;;;2.47;;
71108;SDS011;59614;51.012;-1.648;2023-05-10T13:27:04;10.98;;;2.50;;
71108;SDS011;59614;51.012;-1.648;2023-05-10T13:29:30;9.77;;;2.90;;
71108;SDS011;59614;51.012;-1.648;2023-05-10T13:31:55;10.70;;;2.60;;
71108;SDS011;59614;51.012;-1.648;2023-05-10T13:34:21;11.77;;;2.58;;
71108;SDS011;59614;51.012;-1.648;2023-05-10T13:36:47;12.48;;;3.20;;
71108;SDS011;59614;51.012;-1.648;2023-05-10T13:39:12;9.73;;;3.40;;
71108;SDS011;59614;51.012;-1.648;2023-05-10T13:41:38;12.18;;;3.10;;
71108;SDS011;59614;51.012;-1.648;2023-05-10T13:44:03;13.00;;;3.40;;
71108;SDS011;59614;51.012;-1.648;2023-05-10T13:46:29;12.93;;;3.05;;
71108;SDS011;59614;51.012;-1.648;2023-05-10T13:48:55;12.15;;;2.95;;
71108;SDS011;59614;51.012;-1.648;2023-05-10T13:51:21;11.02;;;2.70;;
71108;SDS011;59614;51.012;-1.648;2023-05-10T13:53:47;10.15;;;2.95;;
71108;SDS011;59614;51.012;-1.648;2023-05-10T13:56:13;9.77;;;2.72;;
71108;SDS011;59614;51.012;-1.648;2023-05-10T13:58:39;12.43;;;3.20;;
71108;SDS011;59614;51.012;-1.648;2023-05-10T14:01:04;15.73;;;2.92;;
71108;SDS011;59614;51.012;-1.648;2023-05-10T14:03:30;11.82;;;3.15;;
71108;SDS011;59614;51.012;-1.648;2023-05-10T14:05:56;9.63;;;2.65;;
71108;SDS011;59614;51.012;-1.648;2023-05-10T14:08:21;11.13;;;2.78;;
71108;SDS011;59614;51.012;-1.648;2023-05-10T14:10:47;9.68;;;2.45;;
71108;SDS011;59614;51.012;-1.648;2023-05-10T14:13:14;13.88;;;2.70;;
71108;SDS011;59614;51.012;-1.648;2023-05-10T14:15:40;8.80;;;2.58;;
71108;SDS011;59614;51.012;-1.648;2023-05-10T14:18:06;8.32;;;1.98;;
71108;SDS011;59614;51.012;-1.648;2023-05-10T14:20:31;6.93;;;2.13;;
71108;SDS011;59614;51.012;-1.648;2023-05-10T14:22:58;10.80;;;2.10;;
71108;SDS011;59614;51.012;-1.648;2023-05-10T14:25:24;8.55;;;2.38;;
71108;SDS011;59614;51.012;-1.648;2023-05-10T14:27:50;6.13;;;2.13;;
71108;SDS011;59614;51.012;-1.648;2023-05-10T14:30:16;9.85;;;2.70;;
71108;SDS011;59614;51.012;-1.648;2023-05-10T14:32:41;9.90;;;2.47;;
71108;SDS011;59614;51.012;-1.648;2023-05-10T14:35:07;8.27;;;2.28;;
71108;SDS011;59614;51.012;-1.648;2023-05-10T14:37:33;6.15;;;2.10;;
71108;SDS011;59614;51.012;-1.648;2023-05-10T14:39:59;11.43;;;2.50;;
71108;SDS011;59614;51.012;-1.648;2023-05-10T14:42:25;9.57;;;2.95;;
71108;SDS011;59614;51.012;-1.648;2023-05-10T14:44:50;7.90;;;2.40;;
71108;SDS011;59614;51.012;-1.648;2023-05-10T14:47:16;11.50;;;2.35;;
71108;SDS011;59614;51.012;-1.648;2023-05-10T14:49:41;8.15;;;2.25;;
71108;SDS011;59614;51.012;-1.648;2023-05-10T14:52:07;4.63;;;1.65;;
71108;SDS011;59614;51.012;-1.648;2023-05-10T14:54:32;6.68;;;2.22;;
71108;SDS011;59614;51.012;-1.648;2023-05-10T14:57:01;6.82;;;2.20;;
71108;SDS011;59614;51.012;-1.648;2023-05-10T14:59:26;9.90;;;2.00;;
71108;SDS011;59614;51.012;-1.648;2023-05-10T15:01:51;5.32;;;1.70;;
71108;SDS011;59614;51.012;-1.648;2023-05-10T15:04:17;6.75;;;1.98;;
71108;SDS011;59614;51.012;-1.648;2023-05-10T15:06:43;6.25;;;1.95;;
71108;SDS011;59614;51.012;-1.648;2023-05-10T15:09:08;10.93;;;2.15;;
71108;SDS011;59614;51.012;-1.648;2023-05-10T15:11:34;8.05;;;2.20;;
71108;SDS011;59614;51.012;-1.648;2023-05-10T15:14:00;6.68;;;2.20;;
71108;SDS011;59614;51.012;-1.648;2023-05-10T15:16:26;6.35;;;1.33;;
71108;SDS011;59614;51.012;-1.648;2023-05-10T15:18:52;7.90;;;1.60;;
71108;SDS011;59614;51.012;-1.648;2023-05-10T15:21:17;7.82;;;1.80;;
71108;SDS011;59614;51.012;-1.648;2023-05-10T15:23:43;6.13;;;1.67;;